Nearby METAR Reports

 

KISP - Islip, New York, USA
Distance from station: SW 4mi, 6km
Updated: Sat, 03/28/2020 1:56 pm EDT
Light rain, Overcast
Light rain, Overcast
 Wind from E
Wind: E 7 mph , 11 km/h
Temperature: 48°F , 9°C
Wind Chill: 45°F , 7°C
Dew Point: 43°F , 6°C
Humidity: 82%
Barometer: 30.12 inHg , 1020 hPa
Summary: Light rain
Clouds: Overcast
Visibility: 10 miles , 16 km
Cloud details: Few Clouds 5000 ft
Mostly cloudy 7000 ft
Overcast 10000 ft
2020/03/28 17:56 KISP 281756Z 09006KT 10SM -RA FEW050 BKN070 OVC100 09/06 A3012 RMK AO2 SLP200 P0000 60003 T00890056 10111 20089 58007
KHWV - Shirley, New York, USA
Distance from station: E 10mi, 16km
Updated: Sat, 03/28/2020 1:56 pm EDT
Light rain, Overcast
Light rain, Overcast
 Wind from varies
Wind: varies 3 mph , 6 km/h
Temperature: 50°F , 10°C
Dew Point: 39°F , 4°C
Humidity: 67%
Barometer: 30.13 inHg , 1020.3 hPa
Summary: Light rain
Clouds: Overcast
Visibility: 10 miles , 16 km
Cloud details: Mostly cloudy 7000 ft
Overcast 8500 ft
2020/03/28 17:56 KHWV 281756Z AUTO VRB03KT 10SM -RA BKN070 OVC085 10/04 A3013 RMK AO2 SLP203 P0000 60000 T01000044 10117 20100 58010 TSNO
 
KFRG - Farmingdale, New York, USA
Distance from station: WSW 20mi, 33km
Updated: Sat, 03/28/2020 2:12 pm EDT
unable to load KFRG data RC=
unable to load KFRG data RC=
 
KBDR - Bridgeport, Connecticut, USA
Distance from station: N 23mi, 37km
Updated: Sat, 03/28/2020 1:52 pm EDT
Light rain, Overcast
Light rain, Overcast
 Wind from ENE
Wind: ENE 12 mph , 19 km/h
Temperature: 46°F , 8°C
Wind Chill: 40°F , 4°C
Dew Point: 36°F , 2°C
Humidity: 66%
Barometer: 30.16 inHg , 1021.3 hPa
Summary: Light rain
Clouds: Overcast
Visibility: 9 miles , 14 km
Cloud details: Overcast 7000 ft
2020/03/28 17:52 KBDR 281752Z 07010KT 9SM -RA OVC070 08/02 A3016 RMK AO2 SLP211 P0000 60000 T00780017 10089 20078 58002
 
KFOK - Westhampton Beac, New York, USA
Distance from station: E 23mi, 37km
Updated: Sat, 03/28/2020 1:53 pm EDT
Light rain, Overcast
Light rain, Overcast
 Wind from ESE
Wind: ESE 5 mph , 7 km/h
Temperature: 48°F , 9°C
Wind Chill: 46°F , 8°C
Dew Point: 37°F , 3°C
Humidity: 66%
Barometer: 30.16 inHg , 1021.3 hPa
Summary: Light rain
Clouds: Overcast
Visibility: 10 miles , 16 km
Cloud details: Overcast 7500 ft
2020/03/28 17:53 KFOK 281753Z 11004KT 10SM -RA OVC075 09/03 A3016 RMK AO2 RAB07E30B47 SLP214 P0000 60000 T00890033 10100 20083 56005
KHVN - New Haven/Tweed, Connecticut, USA
Distance from station: NNE 31mi, 50km
Updated: Sat, 03/28/2020 1:53 pm EDT
Overcast
Overcast
 Wind from E
Wind: E 10 mph , 17 km/h
Temperature: 50°F , 10°C
Wind Chill: 46°F , 8°C
Dew Point: 28°F , -2°C
Humidity: 43%
Barometer: 30.15 inHg , 1021 hPa
Clouds: Overcast
Visibility: 10 miles , 16 km
Cloud details: Overcast 7000 ft
2020/03/28 17:53 KHVN 281753Z 10009KT 10SM OVC070 10/M02 A3015 RMK AO2 SLP211 T01001022 10106 20078 58004
 
KHPN - White Plains, New York, USA
Distance from station: WNW 37mi, 60km
Updated: Sat, 03/28/2020 1:56 pm EDT
Light rain, Overcast
Light rain, Overcast
 Wind from E
Wind: E 8 mph , 13 km/h
Temperature: 45°F , 7°C
Wind Chill: 41°F , 5°C
Dew Point: 36°F , 2°C
Humidity: 71%
Barometer: 30.12 inHg , 1020 hPa
Summary: Light rain
Clouds: Overcast
Visibility: 10 miles , 16 km
Cloud details: Overcast 6000 ft
2020/03/28 17:56 KHPN 281756Z 08007KT 10SM -RA OVC060 07/02 A3012 RMK AO2 SLP202 P0001 60003 T00720017 10089 20072 58002
KJFK - Nyc/Jfk Arpt, New York, USA
Distance from station: WSW 40mi, 64km
Updated: Sat, 03/28/2020 1:51 pm EDT
Light rain, Overcast
Light rain, Overcast
 Wind from ENE
Wind: ENE 10 mph , 17 km/h
Temperature: 48°F , 9°C
Wind Chill: 44°F , 7°C
Dew Point: 45°F , 7°C
Humidity: 87%
Barometer: 30.13 inHg , 1020.3 hPa
Summary: Light rain
Clouds: Overcast
Visibility: 10 miles , 16 km
Cloud details: Mostly cloudy 6500 ft
Overcast 9000 ft
2020/03/28 17:51 KJFK 281751Z 07009KT 10SM -RA BKN065 OVC090 09/07 A3013 RMK AO2 SLP203 P0000 60004 T00890067 10100 20083 58002
 
KDXR - Danbury, Connecticut, USA
Distance from station: NNW 42mi, 68km
Updated: Sat, 03/28/2020 1:53 pm EDT
Light rain, Overcast
Light rain, Overcast
 Wind from ESE
Wind: ESE 5 mph , 7 km/h
Temperature: 46°F , 8°C
Wind Chill: 44°F , 7°C
Dew Point: 34°F , 1°C
Humidity: 62%
Barometer: 30.14 inHg , 1020.7 hPa
Summary: Light rain
Clouds: Overcast
Visibility: 9 miles , 14 km
Cloud details: Mostly cloudy 6500 ft
Overcast 8500 ft
2020/03/28 17:53 KDXR 281753Z 11004KT 9SM -RA BKN065 OVC085 08/01 A3014 RMK AO2 SLP209 P0002 60002 T00780006 10094 20039 58002
KHTO - East Hampton, New York, USA
Distance from station: E 43mi, 69km
Updated: Sat, 03/28/2020 1:55 pm EDT
Overcast
Overcast
 Wind from E
Wind: E 6 mph , 9 km/h
Temperature: 48°F , 9°C
Wind Chill: 45°F , 7°C
Dew Point: 37°F , 3°C
Humidity: 66%
Barometer: 30.14 inHg , 1020.7 hPa
Clouds: Overcast
Visibility: 10 miles , 16 km
Cloud details: Partly cloudy 8000 ft
Overcast 10000 ft
2020/03/28 17:55 KHTO 281755Z AUTO 10005KT 10SM SCT080 OVC100 09/03 A3014 RMK AO2 T00890034 10097 20078
 
KOXC - Oxford/Waterbury, Connecticut, USA
Distance from station: N 43mi, 70km
Updated: Sat, 03/28/2020 1:51 pm EDT
Light rain, Overcast
Light rain, Overcast
 Wind from SE
Wind: SE 8 mph , 13 km/h
Temperature: 46°F , 8°C
Wind Chill: 42°F , 6°C
Dew Point: 28°F , -2°C
Humidity: 50%
Barometer: 30.14 inHg , 1020.7 hPa
Summary: Light rain
Clouds: Overcast
Visibility: 10 miles , 16 km
Cloud details: Mostly cloudy 5500 ft
Overcast 7000 ft
2020/03/28 17:51 KOXC 281751Z 14007KT 10SM -RA BKN055 OVC070 08/M02 A3014 RMK AO2 RAB16 SLP222 P0000 60000 T00831022 10094 20056 58006
KLGA - Nyc/La Guardia, New York, USA
Distance from station: W 44mi, 70km
Updated: Sat, 03/28/2020 1:51 pm EDT
Light rain, Overcast
Light rain, Overcast
 Wind from NNE
Wind: NNE 10 mph , 17 km/h
Temperature: 46°F , 8°C
Wind Chill: 41°F , 5°C
Dew Point: 39°F , 4°C
Humidity: 76%
Barometer: 30.13 inHg , 1020.3 hPa
Summary: Light rain
Clouds: Overcast
Visibility: 10 miles , 16 km
Cloud details: Few Clouds 4000 ft
Mostly cloudy 7000 ft
Overcast 9500 ft
2020/03/28 17:51 KLGA 281751Z 03009KT 10SM -RA FEW040 BKN070 OVC095 08/04 A3013 RMK AO2 SLP201 P0001 60005 T00780044 10089 20078 51001
 
KSNC - Chester, Connecticut, USA
Distance from station: NE 47mi, 76km
Updated: Sat, 03/28/2020 1:55 pm EDT
Few Clouds
Few Clouds
 Wind from varies
Wind: varies 7 mph , 11 km/h, Gust: 14 mph , 22 km/h
Temperature: 52°F , 11°C
Dew Point: 21°F , -6°C
Humidity: 30%
Barometer: 30.15 inHg , 1021 hPa
Clouds: Few Clouds
Visibility: 10 miles , 16 km
Cloud details: Few Clouds 7000 ft
Few Clouds 9000 ft
2020/03/28 17:55 KSNC 281755Z AUTO VRB06G12KT 10SM FEW070 FEW090 11/M06 A3015 RMK AO2
KMMK - Meriden, Connecticut, USA
Distance from station: NNE 48mi, 77km
Updated: Sat, 03/28/2020 1:53 pm EDT
Overcast
Overcast
 Wind from SSW
Wind: SSW 5 mph , 7 km/h
Temperature: 52°F , 11°C
Dew Point: 23°F , -5°C
Humidity: 32%
Barometer: 30.15 inHg , 1021 hPa
Clouds: Overcast
Visibility: 10 miles , 16 km
Cloud details: Mostly cloudy 7500 ft
Overcast 9500 ft
2020/03/28 17:53 KMMK 281753Z AUTO 20004KT 10SM BKN075 OVC095 11/M05 A3015 RMK AO2 SLP212 T01111050 10111 20033 55007
 
KNYC - Nyc/Central Park, New York, USA
Distance from station: W 48mi, 77km
Updated: Sat, 03/28/2020 2:09 pm EDT
Light rain, Mist, Overcast
Light rain, Mist, Overcast
 Wind from ENE
Wind: ENE 8 mph , 13 km/h
Temperature: 46°F , 8°C
Wind Chill: 42°F , 6°C
Dew Point: 43°F , 6°C
Humidity: 87%
Barometer: 30.13 inHg , 1020.3 hPa
Summary: Light rain, Mist
Clouds: Overcast
Visibility: 2 1/2 miles , 4 km
Cloud details: Overcast 6000 ft
2020/03/28 18:09 KNYC 281809Z AUTO 06007KT 2 1/2SM -RA BR OVC060 08/06 A3013 RMK AO2 P0004 T00780056